Time;durP1;ratioP1;P1;durP2;ratioP2;P2;SDS_P1;SDS_P2;PMS_P1;PMS_P2;Temp;Humidity;BMP_temperature;BMP_pressure;BME280_temperature;BME280_humidity;BME280_pressure;Samples;Min_cycle;Max_cycle;Signal;HPM_P1;HPM_P2
2023/04/27 00:01:50;;;;;;;;;;;;;;;10.98;57.95;100383.81;5071314;28;19913;-73
2023/04/27 00:04:16;;;;;;;;;;;;;;;10.96;56.63;100394.66;5072600;28;20330;-73
2023/04/27 00:06:42;;;;;;;;;;;;;;;10.94;59.33;100412.66;5071349;28;20432;-72
2023/04/27 00:09:07;;;;;;;;;;;;;;;10.88;59.95;100437.31;5072962;28;20307;-73
2023/04/27 00:11:33;;;;;;;;;;;;;;;10.75;61.12;100403.25;5073114;28;19918;-73
2023/04/27 00:13:58;;;;;;;;;;;;;;;10.65;61.84;100407.94;5072662;28;19913;-73
2023/04/27 00:16:24;;;;;;;;;;;;;;;10.66;61.69;100427.41;5073970;28;20360;-73
2023/04/27 00:18:49;;;;;;;;;;;;;;;10.66;61.71;100411.41;5076564;28;20352;-72
2023/04/27 00:21:15;;;;;;;;;;;;;;;10.65;60.36;100415.91;5075142;28;19917;-73
2023/04/27 00:23:40;;;;;;;;;;;;;;;10.67;61.21;100419.25;5076390;28;19919;-72
2023/04/27 00:26:05;;;;;;;;;;;;;;;10.67;62.55;100434.38;5076346;28;19920;-72
2023/04/27 00:28:30;;;;;;;;;;;;;;;10.60;63.92;100410.28;5076719;28;19967;-72
2023/04/27 00:30:56;;;;;;;;;;;;;;;10.57;63.32;100418.63;5076363;28;19917;-73
2023/04/27 00:33:21;;;;;;;;;;;;;;;10.58;61.80;100422.94;5075161;28;19913;-72
2023/04/27 00:35:46;;;;;;;;;;;;;;;10.62;62.60;100426.91;5076408;28;19958;-73
2023/04/27 00:38:12;;;;;;;;;;;;;;;10.60;61.57;100412.94;5076181;28;19912;-72
2023/04/27 00:40:38;;;;;;;;;;;;;;;10.58;60.04;100409.63;5077150;28;19912;-73
2023/04/27 00:43:03;;;;;;;;;;;;;;;10.57;62.83;100423.94;5077555;28;19916;-72
2023/04/27 00:45:28;;;;;;;;;;;;;;;10.57;60.70;100429.25;5076839;28;19916;-72
2023/04/27 00:47:54;;;;;;;;;;;;;;;10.56;60.91;100416.97;5077747;28;19913;-72
2023/04/27 00:50:28;;;;;;;;;;;;;;;10.54;61.44;100424.28;5076613;28;20382;-72
2023/04/27 00:52:53;;;;;;;;;;;;;;;10.52;64.01;100420.97;5081403;28;19916;-72
2023/04/27 00:55:19;;;;;;;;;;;;;;;10.46;64.06;100413.66;5080696;28;19927;-71
2023/04/27 00:57:44;;;;;;;;;;;;;;;10.46;64.31;100413.66;5082408;28;19913;-73
2023/04/27 01:00:10;;;;;;;;;;;;;;;10.48;63.49;100419.66;5081084;28;20422;-72
2023/04/27 01:02:35;;;;;;;;;;;;;;;10.48;64.63;100419.66;5081364;28;19913;-71
2023/04/27 01:05:01;;;;;;;;;;;;;;;10.48;64.79;100411.66;5080018;28;19958;-73
2023/04/27 01:07:28;;;;;;;;;;;;;;;10.45;65.00;100409.34;5077643;28;19938;-72
2023/04/27 01:09:53;;;;;;;;;;;;;;;10.45;65.10;100409.34;5079829;28;19912;-71
2023/04/27 01:12:19;;;;;;;;;;;;;;;10.46;63.70;100411.84;5079518;28;19920;-72
2023/04/27 01:14:45;;;;;;;;;;;;;;;10.49;62.33;100405.34;5080422;28;19916;-71
2023/04/27 01:17:10;;;;;;;;;;;;;;;10.50;63.09;100401.66;5079780;28;20276;-73
2023/04/27 01:19:36;;;;;;;;;;;;;;;10.50;62.46;100407.81;5081571;28;19954;-72
2023/04/27 01:22:01;;;;;;;;;;;;;;;10.51;61.73;100408.66;5080193;28;19912;-73
2023/04/27 01:24:26;;;;;;;;;;;;;;;10.49;62.17;100400.84;5077651;28;20245;-73
2023/04/27 01:26:52;;;;;;;;;;;;;;;10.47;61.65;100407.34;5078563;28;19912;-72
2023/04/27 01:29:18;;;;;;;;;;;;;;;10.45;62.90;100409.34;5077798;28;20390;-71
2023/04/27 01:31:43;;;;;;;;;;;;;;;10.40;64.27;100401.00;5079029;28;19912;-74
2023/04/27 01:34:09;;;;;;;;;;;;;;;10.37;63.53;100396.84;5077374;28;19920;-73
2023/04/27 01:36:34;;;;;;;;;;;;;;;10.33;65.11;100397.38;5074842;28;20296;-72
2023/04/27 01:39:00;;;;;;;;;;;;;;;10.29;64.70;100404.88;5074999;28;19920;-73
2023/04/27 01:41:25;;;;;;;;;;;;;;;10.28;64.40;100407.69;5075221;28;19985;-73
2023/04/27 01:43:51;;;;;;;;;;;;;;;10.32;63.06;100409.03;5075034;28;19924;-72
2023/04/27 01:46:17;;;;;;;;;;;;;;;10.38;64.93;100405.69;5074848;28;19916;-73
2023/04/27 01:48:42;;;;;;;;;;;;;;;10.45;64.87;100399.53;5074769;28;19916;-72
2023/04/27 01:51:07;;;;;;;;;;;;;;;10.51;64.31;100403.34;5074796;28;19918;-73
2023/04/27 01:53:33;;;;;;;;;;;;;;;10.58;62.64;100408.78;5074550;28;19955;-72
2023/04/27 01:55:58;;;;;;;;;;;;;;;10.63;63.88;100409.09;5074579;28;19912;-73
2023/04/27 01:58:24;;;;;;;;;;;;;;;10.68;63.47;100404.91;5074758;28;19958;-73
2023/04/27 02:00:50;;;;;;;;;;;;;;;10.77;62.60;100425.22;5074836;28;20370;-71
2023/04/27 02:03:15;;;;;;;;;;;;;;;10.78;62.96;100456.19;5074750;28;19912;-72
2023/04/27 02:05:40;;;;;;;;;;;;;;;10.82;62.95;100448.69;5074690;28;20007;-71
2023/04/27 02:08:06;;;;;;;;;;;;;;;10.77;63.99;100456.34;5074191;28;19920;-72
2023/04/27 02:10:31;;;;;;;;;;;;;;;10.76;64.62;100454.69;5074280;28;20430;-72
2023/04/27 02:12:57;;;;;;;;;;;;;;;10.76;64.82;100468.84;5073201;28;19919;-72
2023/04/27 02:15:22;;;;;;;;;;;;;;;10.75;65.33;100463.69;5074466;28;19920;-72
2023/04/27 02:17:49;;;;;;;;;;;;;;;10.76;65.21;100460.03;5074245;28;20386;-72
2023/04/27 02:20:14;;;;;;;;;;;;;;;10.72;64.67;100470.19;5074094;28;20271;-71
2023/04/27 02:22:40;;;;;;;;;;;;;;;10.72;65.02;100464.03;5074056;28;19919;-72
2023/04/27 02:25:06;;;;;;;;;;;;;;;10.73;65.78;100469.19;5074345;28;20364;-73
2023/04/27 02:27:31;;;;;;;;;;;;;;;10.75;65.52;100475.16;5074252;28;19912;-73
2023/04/27 02:29:57;;;;;;;;;;;;;;;10.83;66.66;100474.31;5074076;28;20015;-73
2023/04/27 02:32:22;;;;;;;;;;;;;;;10.91;68.40;100473.44;5073821;28;19917;-72
2023/04/27 02:34:47;;;;;;;;;;;;;;;10.93;68.63;100450.13;5073864;28;19916;-72
2023/04/27 02:37:13;;;;;;;;;;;;;;;10.95;69.99;100448.13;5073619;28;20003;-73
2023/04/27 02:39:38;;;;;;;;;;;;;;;11.03;67.32;100448.09;5088556;28;19928;-70
2023/04/27 02:42:03;;;;;;;;;;;;;;;11.10;68.95;100465.88;5088587;28;19919;-70
2023/04/27 02:44:30;;;;;;;;;;;;;;;11.20;67.02;100470.16;5075510;28;19916;-71
2023/04/27 02:46:55;;;;;;;;;;;;;;;11.24;69.80;100474.97;5074013;28;19939;-73
2023/04/27 02:49:20;;;;;;;;;;;;;;;11.26;67.90;100488.94;5073985;28;20372;-73
2023/04/27 02:51:46;;;;;;;;;;;;;;;11.15;70.61;100486.69;5074269;28;20386;-73
2023/04/27 02:54:11;;;;;;;;;;;;;;;10.93;73.99;100506.91;5074446;28;19912;-72
2023/04/27 02:56:36;;;;;;;;;;;;;;;10.72;76.72;100486.16;5073881;28;20299;-72
2023/04/27 02:59:02;;;;;;;;;;;;;;;10.64;77.51;100496.81;5073852;28;19912;-72
2023/04/27 03:01:27;;;;;;;;;;;;;;;10.61;76.67;100491.84;5075807;28;20502;-73
2023/04/27 03:03:52;;;;;;;;;;;;;;;10.50;77.40;100498.34;5091133;28;20397;-71
2023/04/27 03:06:18;;;;;;;;;;;;;;;10.40;79.71;100503.00;5091963;28;19919;-71
2023/04/27 03:08:43;;;;;;;;;;;;;;;10.35;78.98;100509.84;5092348;28;19912;-70
2023/04/27 03:11:08;;;;;;;;;;;;;;;10.26;80.13;100505.53;5093288;28;20447;-71
2023/04/27 03:13:40;;;;;;;;;;;;;;;10.25;78.68;100507.34;5092988;28;19912;-73
2023/04/27 03:16:07;;;;;;;;;;;;;;;10.29;80.25;100505.19;5092169;28;19912;-69
2023/04/27 03:18:32;;;;;;;;;;;;;;;10.37;77.25;100516.66;5090712;28;19919;-71
2023/04/27 03:21:09;;;;;;;;;;;;;;;10.43;79.33;100525.81;5080834;28;19995;-72
2023/04/27 03:23:35;;;;;;;;;;;;;;;10.34;79.95;100513.50;5073026;28;19920;-71
2023/04/27 03:26:04;;;;;;;;;;;;;;;10.19;81.67;100522.13;5072933;28;19912;-72
2023/04/27 03:28:30;;;;;;;;;;;;;;;10.18;80.87;100523.13;5073550;28;19947;-72
2023/04/27 03:30:55;;;;;;;;;;;;;;;10.22;79.63;100521.81;5074088;28;19920;-72
2023/04/27 03:33:21;;;;;;;;;;;;;;;10.26;79.23;100522.31;5072935;28;20403;-73
2023/04/27 03:35:53;;;;;;;;;;;;;;;10.26;81.50;100524.97;5073121;28;20379;-73
2023/04/27 03:38:19;;;;;;;;;;;;;;;10.28;80.91;100525.66;5073111;28;19912;-72
2023/04/27 03:40:44;;;;;;;;;;;;;;;10.31;79.06;100540.44;5072822;28;19965;-72
2023/04/27 03:43:09;;;;;;;;;;;;;;;10.30;81.12;100533.47;5071384;28;20011;-71
2023/04/27 03:45:35;;;;;;;;;;;;;;;10.28;80.75;100527.47;5073027;28;20302;-72
2023/04/27 03:48:00;;;;;;;;;;;;;;;10.27;80.41;100531.13;5072829;28;19917;-72
2023/04/27 03:50:25;;;;;;;;;;;;;;;10.19;81.48;100521.28;5072654;28;20272;-72
2023/04/27 03:52:51;;;;;;;;;;;;;;;10.13;82.10;100528.13;5072857;28;19920;-72
2023/04/27 03:55:16;;;;;;;;;;;;;;;10.10;82.10;100523.09;5072499;28;19966;-72
2023/04/27 03:57:41;;;;;;;;;;;;;;;10.06;82.93;100527.09;5078044;28;19912;-72
2023/04/27 04:00:10;;;;;;;;;;;;;;;10.02;82.95;100525.75;5085096;28;20372;-69
2023/04/27 04:02:36;;;;;;;;;;;;;;;10.09;82.38;100520.59;5074706;28;20363;-71
2023/04/27 04:05:02;;;;;;;;;;;;;;;10.14;81.73;100529.78;5074001;28;19912;-74
2023/04/27 04:07:28;;;;;;;;;;;;;;;10.21;82.58;100524.66;5073376;28;19912;-70
2023/04/27 04:09:53;;;;;;;;;;;;;;;10.38;81.07;100531.63;5073140;28;20336;-73
2023/04/27 04:12:19;;;;;;;;;;;;;;;10.51;80.75;100536.47;5072384;28;19912;-73
2023/04/27 04:14:47;;;;;;;;;;;;;;;10.68;79.45;100530.09;5073052;28;19920;-72
2023/04/27 04:17:18;;;;;;;;;;;;;;;10.84;78.14;100531.91;5074553;28;19913;-74
2023/04/27 04:19:46;;;;;;;;;;;;;;;10.99;77.17;100540.06;5072740;28;20015;-73
2023/04/27 04:22:11;;;;;;;;;;;;;;;11.04;77.36;100543.88;5072841;28;20344;-71
2023/04/27 04:24:38;;;;;;;;;;;;;;;11.08;76.73;100534.53;5072549;28;19912;-72
2023/04/27 04:27:04;;;;;;;;;;;;;;;11.10;76.17;100543.16;5071041;28;19916;-72
2023/04/27 04:29:29;;;;;;;;;;;;;;;11.18;75.70;100556.47;5071938;28;19913;-73
2023/04/27 04:31:55;;;;;;;;;;;;;;;11.22;75.62;100556.13;5071449;28;19924;-73
2023/04/27 04:34:20;;;;;;;;;;;;;;;11.21;77.44;100552.63;5070614;28;19974;-70
2023/04/27 04:36:46;;;;;;;;;;;;;;;11.26;76.08;100550.28;5071597;28;20602;-71
2023/04/27 04:39:12;;;;;;;;;;;;;;;11.21;77.12;100549.13;5071484;28;19912;-70
2023/04/27 04:41:38;;;;;;;;;;;;;;;11.09;78.47;100556.66;5071810;28;19919;-70
2023/04/27 04:44:04;;;;;;;;;;;;;;;11.01;78.70;100554.03;5071804;28;20330;-72
2023/04/27 04:46:31;;;;;;;;;;;;;;;10.92;79.78;100549.69;5071492;28;20288;-70
2023/04/27 04:48:56;;;;;;;;;;;;;;;10.88;79.76;100556.38;5071736;28;19916;-70
2023/04/27 04:51:21;;;;;;;;;;;;;;;10.84;79.97;100559.38;5071722;28;20046;-71
2023/04/27 04:53:47;;;;;;;;;;;;;;;10.74;80.33;100552.59;5071047;28;20014;-70
2023/04/27 04:56:13;;;;;;;;;;;;;;;10.62;81.25;100560.06;5070293;28;19919;-69
2023/04/27 04:58:38;;;;;;;;;;;;;;;10.60;80.23;100562.06;5071329;28;20696;-70
2023/04/27 05:01:04;;;;;;;;;;;;;;;10.58;81.50;100558.75;5072308;28;19951;-71
2023/04/27 05:03:29;;;;;;;;;;;;;;;10.58;81.15;100557.91;5073693;28;20462;-72
2023/04/27 05:05:55;;;;;;;;;;;;;;;10.61;80.77;100569.06;5076635;28;19981;-73
2023/04/27 05:08:20;;;;;;;;;;;;;;;10.63;82.62;100575.06;5074912;28;20430;-72
2023/04/27 05:10:49;;;;;;;;;;;;;;;10.51;81.88;100568.41;5074440;28;19912;-70
2023/04/27 05:13:14;;;;;;;;;;;;;;;10.59;82.01;100565.72;5075505;28;19912;-73
2023/04/27 05:15:40;;;;;;;;;;;;;;;10.62;81.95;100576.06;5075419;28;20341;-72
2023/04/27 05:18:06;;;;;;;;;;;;;;;10.72;82.68;100570.56;5076047;28;19913;-72
2023/04/27 05:20:33;;;;;;;;;;;;;;;10.78;81.18;100560.06;5077928;28;19919;-72
2023/04/27 05:22:58;;;;;;;;;;;;;;;10.75;81.15;100560.41;5078515;28;19912;-71
2023/04/27 05:25:24;;;;;;;;;;;;;;;10.80;80.90;100568.72;5077752;28;19913;-71
2023/04/27 05:27:49;;;;;;;;;;;;;;;10.85;80.40;100571.69;5076359;28;20003;-71
2023/04/27 05:30:15;;;;;;;;;;;;;;;10.89;81.46;100577.53;5077001;28;20010;-72
2023/04/27 05:32:40;;;;;;;;;;;;;;;11.00;82.20;100568.38;5079602;28;20018;-72
2023/04/27 05:35:06;;;;;;;;;;;;;;;11.15;80.79;100572.81;5079019;28;19970;-71
2023/04/27 05:37:31;;;;;;;;;;;;;;;11.28;79.94;100572.28;5077617;28;19966;-72
2023/04/27 05:39:56;;;;;;;;;;;;;;;11.42;79.11;100579.56;5076861;28;19920;-71
2023/04/27 05:42:30;;;;;;;;;;;;;;;11.36;79.07;100574.91;5075142;28;19943;-72
2023/04/27 05:44:58;;;;;;;;;;;;;;;11.43;79.89;100591.03;5074918;28;19917;-71
2023/04/27 05:47:23;;;;;;;;;;;;;;;11.48;78.81;100578.84;5074681;28;19921;-72
2023/04/27 05:49:50;;;;;;;;;;;;;;;11.53;80.08;100580.16;5056637;28;19948;-72
2023/04/27 05:52:15;;;;;;;;;;;;;;;11.56;80.33;100579.81;5074354;28;20279;-71
2023/04/27 05:54:45;;;;;;;;;;;;;;;11.66;78.90;100575.97;5074204;28;19920;-71
2023/04/27 05:57:10;;;;;;;;;;;;;;;11.81;77.45;100573.41;5074026;28;20379;-72
2023/04/27 05:59:35;;;;;;;;;;;;;;;11.92;76.46;100580.19;5074084;28;19920;-71
2023/04/27 06:02:00;;;;;;;;;;;;;;;11.88;77.10;100570.88;5073019;28;19912;-70
2023/04/27 06:04:26;;;;;;;;;;;;;;;11.78;77.01;100581.75;5074336;28;19917;-70
2023/04/27 06:06:51;;;;;;;;;;;;;;;11.68;78.58;100573.13;5074413;28;19912;-71
2023/04/27 06:09:16;;;;;;;;;;;;;;;11.46;78.68;100572.88;5074205;28;19913;-71
2023/04/27 06:11:42;;;;;;;;;;;;;;;11.26;80.58;100589.44;5074208;28;20391;-71
2023/04/27 06:14:08;;;;;;;;;;;;;;;11.14;83.01;100595.13;5072887;28;20352;-72
2023/04/27 06:16:33;;;;;;;;;;;;;;;11.05;82.32;100590.84;5073947;28;20264;-70
2023/04/27 06:18:59;;;;;;;;;;;;;;;11.07;81.63;100602.16;5074069;28;20275;-71
2023/04/27 06:21:24;;;;;;;;;;;;;;;11.14;80.85;100600.47;5074028;28;19912;-72
2023/04/27 06:23:49;;;;;;;;;;;;;;;11.09;80.67;100584.16;5073723;28;20378;-72
2023/04/27 06:26:15;;;;;;;;;;;;;;;11.07;81.27;100580.81;5073768;28;19913;-71
2023/04/27 06:28:40;;;;;;;;;;;;;;;11.06;81.11;100573.00;5073491;28;19913;-72
2023/04/27 06:31:05;;;;;;;;;;;;;;;11.09;81.02;100593.97;5073902;28;20399;-72
2023/04/27 06:33:31;;;;;;;;;;;;;;;11.17;80.04;100586.78;5073923;28;20001;-72
2023/04/27 06:35:57;;;;;;;;;;;;;;;11.16;80.01;100590.47;5073752;28;19931;-72
2023/04/27 06:38:22;;;;;;;;;;;;;;;11.26;80.75;100595.59;5073777;28;19944;-73
2023/04/27 06:40:51;;;;;;;;;;;;;;;11.34;82.35;100602.75;5075154;28;20322;-73
2023/04/27 06:43:17;;;;;;;;;;;;;;;11.43;82.41;100605.22;5073187;28;19989;-73
2023/04/27 06:45:42;;;;;;;;;;;;;;;11.58;82.22;100601.84;5073541;28;19921;-70
2023/04/27 06:48:08;;;;;;;;;;;;;;;11.64;81.42;100598.47;5073187;28;19918;-71
2023/04/27 06:50:33;;;;;;;;;;;;;;;11.67;81.27;100598.13;5073252;28;19916;-71
2023/04/27 06:52:58;;;;;;;;;;;;;;;11.72;80.75;100601.09;5073181;28;19913;-73
2023/04/27 06:55:23;;;;;;;;;;;;;;;11.86;80.66;100603.09;5073105;28;19958;-72
2023/04/27 06:57:49;;;;;;;;;;;;;;;11.91;78.88;100600.72;5073188;28;19959;-72
2023/04/27 07:00:14;;;;;;;;;;;;;;;12.13;80.04;100607.06;5073661;28;19936;-71
2023/04/27 07:02:40;;;;;;;;;;;;;;;12.46;78.75;100605.03;5073166;28;20364;-72
2023/04/27 07:05:05;;;;;;;;;;;;;;;12.66;77.39;100602.69;5073167;28;19969;-70
2023/04/27 07:07:31;;;;;;;;;;;;;;;12.66;77.44;100606.19;5072686;28;20022;-73
2023/04/27 07:09:56;;;;;;;;;;;;;;;12.62;77.39;100610.22;5072738;28;20399;-72
2023/04/27 07:12:22;;;;;;;;;;;;;;;12.46;77.03;100607.72;5072872;28;20010;-72
2023/04/27 07:14:49;;;;;;;;;;;;;;;12.22;77.39;100606.03;5065890;28;20002;-73
2023/04/27 07:17:15;;;;;;;;;;;;;;;12.17;77.04;100618.25;5053026;28;19913;-70
2023/04/27 07:19:40;;;;;;;;;;;;;;;12.12;77.25;100628.59;5053641;28;19913;-70
2023/04/27 07:22:06;;;;;;;;;;;;;;;12.09;77.15;100627.94;5053250;28;19913;-72
2023/04/27 07:24:31;;;;;;;;;;;;;;;12.12;77.61;100636.63;5053096;28;20380;-72
2023/04/27 07:26:56;;;;;;;;;;;;;;;12.20;77.31;100649.94;5052387;28;20373;-72
2023/04/27 07:29:22;;;;;;;;;;;;;;;12.26;77.76;100635.88;5053099;28;19913;-71
2023/04/27 07:31:47;;;;;;;;;;;;;;;12.39;77.98;100646.78;5053329;28;19913;-71
2023/04/27 07:34:13;;;;;;;;;;;;;;;12.59;77.29;100634.63;5052951;28;19920;-73
2023/04/27 07:36:38;;;;;;;;;;;;;;;12.79;76.45;100642.19;5053145;28;19912;-72
2023/04/27 07:39:05;;;;;;;;;;;;;;;12.80;76.27;100636.66;5061709;28;19916;-72
2023/04/27 07:41:32;;;;;;;;;;;;;;;12.93;75.09;100639.53;5072356;28;19979;-73
2023/04/27 07:43:58;;;;;;;;;;;;;;;13.02;74.13;100640.31;5071867;28;20376;-72
2023/04/27 07:46:25;;;;;;;;;;;;;;;13.19;73.97;100633.81;5070636;28;20143;-73
2023/04/27 07:48:51;;;;;;;;;;;;;;;13.20;74.31;100638.13;5071248;28;19921;-73
2023/04/27 07:51:17;;;;;;;;;;;;;;;13.13;74.41;100628.31;5072294;28;19917;-72
2023/04/27 07:53:43;;;;;;;;;;;;;;;13.11;74.40;100639.22;5072310;28;19935;-71
2023/04/27 07:56:09;;;;;;;;;;;;;;;12.90;76.05;100631.03;5072233;28;19912;-73
2023/04/27 07:58:34;;;;;;;;;;;;;;;12.71;76.62;100627.84;5072512;28;19912;-71
2023/04/27 08:01:00;;;;;;;;;;;;;;;12.74;76.59;100620.50;5072405;28;19920;-70
2023/04/27 08:03:25;;;;;;;;;;;;;;;12.82;76.36;100626.59;5072498;28;19913;-71
2023/04/27 08:05:51;;;;;;;;;;;;;;;12.83;75.78;100635.47;5073553;28;20314;-74
2023/04/27 08:08:17;;;;;;;;;;;;;;;12.76;75.32;100637.19;5072343;28;19912;-72
2023/04/27 08:10:42;;;;;;;;;;;;;;;12.81;75.77;100649.00;5071997;28;19912;-71
2023/04/27 08:13:08;;;;;;;;;;;;;;;12.78;75.40;100645.84;5072166;28;19979;-75
2023/04/27 08:15:37;;;;;;;;;;;;;;;12.86;75.06;100649.28;5072350;28;19992;-73
2023/04/27 08:18:02;;;;;;;;;;;;;;;13.06;75.16;100654.97;5072096;28;20423;-70
2023/04/27 08:20:27;;;;;;;;;;;;;;;12.90;76.40;100665.78;5071916;28;19918;-72
2023/04/27 08:22:53;;;;;;;;;;;;;;;12.84;76.01;100666.50;5072730;28;19917;-70
2023/04/27 08:25:18;;;;;;;;;;;;;;;12.84;75.71;100672.69;5071647;28;19962;-69
2023/04/27 08:27:45;;;;;;;;;;;;;;;12.77;75.47;100676.25;5071843;28;19987;-74
2023/04/27 08:30:11;;;;;;;;;;;;;;;12.48;76.77;100683.16;5070711;28;19924;-70
2023/04/27 08:32:36;;;;;;;;;;;;;;;12.20;77.93;100665.94;5071769;28;19958;-70
2023/04/27 08:35:01;;;;;;;;;;;;;;;11.79;80.39;100618.94;5071497;28;19916;-69
2023/04/27 08:37:28;;;;;;;;;;;;;;;11.69;79.99;100638.78;5073299;28;20405;-69
2023/04/27 08:39:53;;;;;;;;;;;;;;;11.67;82.67;100673.66;5075325;28;19917;-68
2023/04/27 08:42:18;;;;;;;;;;;;;;;11.54;84.62;100662.66;5075893;28;19913;-68
2023/04/27 08:44:43;;;;;;;;;;;;;;;11.64;85.53;100683.84;5075609;28;19920;-67
2023/04/27 08:47:09;;;;;;;;;;;;;;;11.80;85.65;100683.78;5075476;28;19916;-68
2023/04/27 08:49:37;;;;;;;;;;;;;;;12.24;84.23;100669.94;5057826;28;19913;-68
2023/04/27 08:52:03;;;;;;;;;;;;;;;12.80;82.33;100670.56;5055203;28;20406;-69
2023/04/27 08:54:28;;;;;;;;;;;;;;;13.22;78.84;100659.34;5055167;28;19912;-69
2023/04/27 08:56:53;;;;;;;;;;;;;;;13.17;76.66;100675.06;5055747;28;19947;-68
2023/04/27 08:59:19;;;;;;;;;;;;;;;13.36;77.04;100681.78;5055333;28;20351;-66
2023/04/27 09:01:45;;;;;;;;;;;;;;;13.52;75.57;100671.72;5055215;28;19912;-67
2023/04/27 09:04:11;;;;;;;;;;;;;;;13.53;75.29;100672.56;5071348;28;19924;-69
2023/04/27 09:06:36;;;;;;;;;;;;;;;13.75;74.23;100681.53;5074793;28;20443;-70
2023/04/27 09:09:02;;;;;;;;;;;;;;;13.76;73.56;100678.66;5074894;28;19999;-70
2023/04/27 09:11:32;;;;;;;;;;;;;;;13.67;73.06;100678.94;5075023;28;20034;-70
2023/04/27 09:13:58;;;;;;;;;;;;;;;13.60;72.64;100678.88;5074689;28;19916;-69
2023/04/27 09:16:25;;;;;;;;;;;;;;;13.40;73.90;100688.44;5074325;28;20244;-69
2023/04/27 09:18:50;;;;;;;;;;;;;;;13.13;74.14;100689.81;5073136;28;20439;-70
2023/04/27 09:21:23;;;;;;;;;;;;;;;12.93;75.29;100676.13;5074666;28;20028;-71
2023/04/27 09:23:48;;;;;;;;;;;;;;;12.84;75.75;100682.56;5074434;28;19920;-72
2023/04/27 09:26:19;;;;;;;;;;;;;;;12.88;75.08;100686.53;5074753;28;19916;-73
2023/04/27 09:28:46;;;;;;;;;;;;;;;12.84;74.82;100686.06;5072586;28;19912;-72
2023/04/27 09:31:12;;;;;;;;;;;;;;;12.71;75.00;100693.81;5074322;28;19912;-70
2023/04/27 09:33:37;;;;;;;;;;;;;;;12.55;75.69;100691.28;5074102;28;19927;-72
2023/04/27 09:36:04;;;;;;;;;;;;;;;12.42;76.02;100689.16;5074155;28;20003;-70
2023/04/27 09:38:30;;;;;;;;;;;;;;;12.18;75.99;100671.47;5074420;28;19923;-71
2023/04/27 09:40:56;;;;;;;;;;;;;;;11.66;79.52;100684.50;5074494;28;19912;-77
2023/04/27 09:43:24;;;;;;;;;;;;;;;11.60;79.75;100687.84;5074398;28;20264;-70
2023/04/27 09:46:14;;;;;;;;;;;;;;;11.77;78.92;100681.44;5074501;28;19934;-70
2023/04/27 09:48:40;;;;;;;;;;;;;;;11.93;79.44;100694.78;5075098;28;20341;-69
2023/04/27 09:51:06;;;;;;;;;;;;;;;11.92;78.30;100687.78;5057441;28;20328;-74
2023/04/27 09:53:31;;;;;;;;;;;;;;;11.85;78.21;100700.13;5054335;28;19913;-73
2023/04/27 09:56:06;;;;;;;;;;;;;;;11.58;79.17;100719.19;5054644;28;20293;-73
2023/04/27 09:58:31;;;;;;;;;;;;;;;11.53;78.96;100732.19;5054138;28;19916;-73
2023/04/27 10:01:17;;;;;;;;;;;;;;;11.64;78.98;100711.34;5070018;28;20012;-74
2023/04/27 10:04:02;;;;;;;;;;;;;;;11.85;77.74;100710.78;5075763;28;19919;-73
2023/04/27 10:06:46;;;;;;;;;;;;;;;11.82;77.69;100724.47;5072578;28;19919;-70
2023/04/27 10:09:12;;;;;;;;;;;;;;;11.66;79.50;100745.84;5068432;28;19916;-69
2023/04/27 10:11:39;;;;;;;;;;;;;;;11.44;82.76;100747.38;5065175;28;20283;-69
2023/04/27 10:14:07;;;;;;;;;;;;;;;11.51;82.93;100744.88;5073868;28;19912;-68
2023/04/27 10:16:42;;;;;;;;;;;;;;;11.74;83.32;100737.81;5073490;28;20372;-71
2023/04/27 10:19:08;;;;;;;;;;;;;;;11.81;79.97;100754.84;5072717;28;19958;-68
2023/04/27 10:21:33;;;;;;;;;;;;;;;11.82;80.04;100748.50;5073805;28;19920;-69
2023/04/27 10:24:05;;;;;;;;;;;;;;;12.15;80.10;100751.09;5073610;28;20473;-69
2023/04/27 10:26:31;;;;;;;;;;;;;;;12.50;73.96;100750.56;5073689;28;19913;-69
2023/04/27 10:28:57;;;;;;;;;;;;;;;12.41;72.17;100751.59;5073863;28;20379;-69
2023/04/27 10:31:27;;;;;;;;;;;;;;;12.33;70.83;100754.31;5073570;28;19935;-70
2023/04/27 10:33:52;;;;;;;;;;;;;;;12.06;71.59;100748.41;5071974;28;20352;-69
2023/04/27 10:36:17;;;;;;;;;;;;;;;11.90;73.09;100759.16;5073209;28;19919;-68
2023/04/27 10:38:43;;;;;;;;;;;;;;;11.87;72.75;100762.19;5073512;28;20309;-68
2023/04/27 10:41:12;;;;;;;;;;;;;;;11.70;72.44;100753.34;5073370;28;19912;-68
2023/04/27 10:43:38;;;;;;;;;;;;;;;11.28;74.95;100742.06;5072711;28;19916;-69
2023/04/27 10:46:21;;;;;;;;;;;;;;;11.07;75.37;100754.06;5073187;28;20015;-68
2023/04/27 10:48:46;;;;;;;;;;;;;;;10.95;76.88;100755.38;5070764;28;19912;-68
2023/04/27 10:51:16;;;;;;;;;;;;;;;11.04;76.43;100764.22;5072368;28;19917;-68
2023/04/27 10:53:41;;;;;;;;;;;;;;;10.99;76.83;100761.22;5072899;28;19939;-69
2023/04/27 10:56:17;;;;;;;;;;;;;;;11.01;76.45;100772.56;5071794;28;19912;-68
2023/04/27 10:58:43;;;;;;;;;;;;;;;11.10;76.47;100766.22;5070855;28;19962;-70
2023/04/27 11:01:08;;;;;;;;;;;;;;;11.24;75.64;100764.72;5070496;28;19955;-69
2023/04/27 11:03:34;;;;;;;;;;;;;;;11.51;74.71;100774.19;5070989;28;19962;-70
2023/04/27 11:06:03;;;;;;;;;;;;;;;11.84;73.25;100767.84;5072329;28;19974;-69
2023/04/27 11:08:35;;;;;;;;;;;;;;;12.16;72.31;100761.59;5072357;28;19912;-69
2023/04/27 11:11:00;;;;;;;;;;;;;;;12.41;70.73;100767.63;5072651;28;19983;-69
2023/04/27 11:13:27;;;;;;;;;;;;;;;12.45;70.55;100763.63;5072457;28;20008;-70
2023/04/27 11:15:58;;;;;;;;;;;;;;;12.56;68.59;100773.09;5071833;28;19960;-69
2023/04/27 11:18:29;;;;;;;;;;;;;;;12.62;67.66;100775.88;5072274;28;19920;-68
2023/04/27 11:21:08;;;;;;;;;;;;;;;12.29;68.35;100764.53;5073003;28;19953;-69
2023/04/27 11:23:37;;;;;;;;;;;;;;;12.52;68.45;100779.78;5074915;28;19948;-69
2023/04/27 11:26:15;;;;;;;;;;;;;;;12.76;68.13;100770.81;5073591;28;20334;-70
2023/04/27 11:29:03;;;;;;;;;;;;;;;12.76;68.14;100781.50;5072286;28;20267;-69
2023/04/27 11:31:49;;;;;;;;;;;;;;;12.40;69.55;100779.31;5071114;28;19912;-69
2023/04/27 11:34:16;;;;;;;;;;;;;;;12.19;71.24;100779.09;5071741;28;19922;-68
2023/04/27 11:36:41;;;;;;;;;;;;;;;12.01;71.48;100803.34;5071225;28;20260;-68
2023/04/27 11:39:08;;;;;;;;;;;;;;;11.73;72.12;100801.03;5071932;28;19978;-70
2023/04/27 11:41:36;;;;;;;;;;;;;;;11.63;71.83;100799.53;5072274;28;19959;-69
2023/04/27 11:44:08;;;;;;;;;;;;;;;11.59;72.22;100800.88;5071129;28;19916;-69
2023/04/27 11:46:38;;;;;;;;;;;;;;;11.39;72.53;100803.06;5068961;28;20411;-69
2023/04/27 11:49:04;;;;;;;;;;;;;;;11.44;72.61;100814.88;5070666;28;19919;-71
2023/04/27 11:51:33;;;;;;;;;;;;;;;11.44;72.58;100817.53;5071786;28;19994;-68
2023/04/27 11:54:02;;;;;;;;;;;;;;;11.32;73.32;100823.38;5070896;28;20284;-69
2023/04/27 11:56:35;;;;;;;;;;;;;;;11.17;73.83;100818.69;5071729;28;20283;-68
2023/04/27 11:59:00;;;;;;;;;;;;;;;10.95;75.29;100839.81;5072463;28;19913;-68
2023/04/27 12:01:25;;;;;;;;;;;;;;;10.82;75.72;100841.13;5072514;28;20386;-68
2023/04/27 12:03:51;;;;;;;;;;;;;;;10.69;76.24;100823.91;5072544;28;19920;-68
2023/04/27 12:06:22;;;;;;;;;;;;;;;10.88;74.95;100844.13;5072384;28;19912;-70
2023/04/27 12:08:48;;;;;;;;;;;;;;;10.89;75.29;100843.13;5073086;28;19912;-68
2023/04/27 12:11:13;;;;;;;;;;;;;;;10.83;74.34;100840.13;5072670;28;20277;-68
2023/04/27 12:13:38;;;;;;;;;;;;;;;11.03;74.17;100845.19;5076880;28;19958;-68
2023/04/27 12:16:04;;;;;;;;;;;;;;;11.18;72.29;100843.53;5076970;28;20016;-67
2023/04/27 12:18:30;;;;;;;;;;;;;;;11.07;72.67;100831.34;5076405;28;20280;-67
2023/04/27 12:20:55;;;;;;;;;;;;;;;11.10;72.80;100843.50;5076469;28;19913;-68
2023/04/27 12:23:20;;;;;;;;;;;;;;;11.06;72.96;100850.19;5076327;28;19912;-68
2023/04/27 12:25:46;;;;;;;;;;;;;;;11.04;72.55;100854.84;5076414;28;19913;-70
2023/04/27 12:28:16;;;;;;;;;;;;;;;10.75;73.70;100848.09;5076257;28;20009;-67
2023/04/27 12:30:42;;;;;;;;;;;;;;;10.73;74.34;100852.75;5075992;28;20008;-69
2023/04/27 12:33:09;;;;;;;;;;;;;;;10.74;74.13;100869.56;5075938;28;20054;-69